Home   Weather   Ukraine   Alchevsk   Past weeks
Flag for Ukraine

Past Weather in Alchevsk, Ukraine — Yesterday and Last 2 Weeks

Currently: 64 °F. Sprinkles. Passing clouds. (Weather station: Belgorod, Ukraine). See more current weather

Past Weather in Alchevsk — Graph

°F

Alchevsk Temperature Yesterday

Maximum temperature yesterday: 86 °F (at 2:30 pm)
Minimum temperature yesterday: 63 °F (at 6:00 am)
Average temperature yesterday: 75 °F

High & Low Weather Summary for the Past Weeks

 TemperatureHumidityPressure
High99 °F (Jul 18, 4:00 pm)100% (Jul 19, 3:00 am)30.15 "Hg (Jul 19, 3:00 am)
Low63 °F (Jul 21, 4:00 am)29% (Jul 12, 5:00 pm)29.80 "Hg (Jul 20, 5:00 pm)
Average80 °F53%29.98 "Hg
* Reported Jul 8 1:00 am — Jul 23 1:30 am, Alchevsk. Weather by CustomWeather, © 2024

Note: Actual official high and low records may vary slightly from our data, if they occured in-between our weather recording intervals... More about our weather records

Alchevsk Weather History for the Previous 24 Hours

Scroll right to see more
 ConditionsComfort  
Time TempWeatherWind HumidityBarometerVisibility
1:30 am
Tue, Jul 23
68 °FSprinkles. Passing clouds.8 mph73%29.86 "HgN/A
1:00 am68 °FSprinkles. Passing clouds.10 mph78%29.83 "HgN/A
12:30 am68 °FSprinkles. Passing clouds.8 mph73%29.83 "HgN/A
12:00 am70 °FClear.8 mph73%29.83 "Hg10 mi
11:30 pm
Mon, Jul 22
68 °FClear.10 mph73%29.83 "Hg10 mi
11:00 pm73 °FClear.3 mph53%29.83 "Hg10 mi
10:00 pm73 °FClear.3 mph50%29.83 "Hg10 mi
9:30 pm75 °FClear.3 mph47%29.83 "Hg10 mi
9:00 pm75 °FClear.6 mph47%29.83 "Hg10 mi
8:00 pm79 °FSunny.8 mph42%29.80 "Hg10 mi
7:30 pm81 °FSunny.3 mph39%29.80 "Hg10 mi
7:00 pm81 °FSunny.3 mph34%29.80 "Hg10 mi
6:30 pm84 °FSunny.1 mph29%29.80 "Hg10 mi
6:00 pm82 °FPassing clouds.3 mph32%29.80 "HgN/A
5:30 pm86 °FSunny.3 mph29%29.80 "Hg10 mi
5:00 pm84 °FSunny.6 mph31%29.80 "Hg10 mi
4:00 pm84 °FSunny.1 mph31%29.80 "Hg10 mi
3:30 pm82 °FSunny.6 mph32%29.80 "Hg10 mi
3:00 pm86 °FPassing clouds.3 mph29%29.83 "HgN/A
2:30 pm86 °FPassing clouds.3 mph31%29.83 "HgN/A
2:00 pm82 °FPassing clouds.6 mph32%29.83 "HgN/A
1:30 pm84 °FPassing clouds.3 mph33%29.83 "HgN/A
1:00 pm81 °FPassing clouds.6 mph37%29.83 "HgN/A
12:30 pm84 °FPassing clouds.3 mph31%29.83 "HgN/A
12:00 pm82 °FPassing clouds.6 mph35%29.83 "HgN/A
11:30 am82 °FPassing clouds.6 mph37%29.83 "HgN/A
11:00 am81 °FPassing clouds.6 mph37%29.83 "HgN/A
10:00 am79 °FSunny.1 mph42%29.86 "Hg10 mi
9:30 am79 °FSunny.1 mph42%29.86 "Hg10 mi
9:00 am77 °FPassing clouds.6 mph44%29.86 "HgN/A
8:30 am73 °FPassing clouds.3 mph53%29.86 "HgN/A
8:00 am70 °FSunny.3 mph60%29.86 "Hg10 mi
7:30 am68 °FSunny.1 mph60%29.86 "Hg10 mi
7:00 am64 °FSunny.3 mph73%29.86 "Hg10 mi
6:30 am64 °FSunny.3 mph68%29.86 "Hg10 mi
6:00 am63 °FSunny.3 mph73%29.86 "Hg10 mi
5:30 am64 °FSunny.6 mph68%29.86 "Hg10 mi
5:00 am64 °FSunny.3 mph64%29.86 "Hg10 mi
4:30 am66 °FClear.3 mph60%29.86 "Hg10 mi
4:00 am66 °FClear.3 mph64%29.86 "Hg10 mi
3:30 am66 °FClear.3 mph60%29.86 "Hg10 mi
3:00 am68 °FClear.3 mph60%29.86 "Hg10 mi
2:30 am68 °FClear.3 mph60%29.86 "Hg10 mi
2:00 am66 °FClear.6 mph64%29.86 "Hg10 mi
Weather by CustomWeather, © 2024

See weather overview